createdAt,value
2017-01-23T00:00:12.994Z,18.54
2017-01-23T00:01:22.073Z,18.55
2017-01-23T00:02:30.794Z,18.55
2017-01-23T00:03:39.508Z,18.51
2017-01-23T00:04:48.964Z,18.58
2017-01-23T00:05:58.855Z,18.54
2017-01-23T00:07:07.566Z,18.5
2017-01-23T00:08:16.246Z,18.57
2017-01-23T00:09:25.716Z,18.58
2017-01-23T00:10:34.416Z,18.5
2017-01-23T00:11:43.094Z,18.51
2017-01-23T00:12:52.165Z,18.52
2017-01-23T00:14:01.653Z,18.54
2017-01-23T00:15:10.748Z,18.51
2017-01-23T00:16:19.430Z,18.54
2017-01-23T00:17:28.107Z,18.5
2017-01-23T00:18:37.179Z,18.48
2017-01-23T00:19:46.642Z,18.51
2017-01-23T00:20:55.341Z,18.54
2017-01-23T00:22:04.013Z,18.48
2017-01-23T00:23:13.881Z,18.51
2017-01-23T00:24:22.588Z,18.44
2017-01-23T00:25:31.680Z,18.47
2017-01-23T00:26:40.385Z,18.58
2017-01-23T00:27:49.474Z,18.51
2017-01-23T00:28:58.564Z,18.51
2017-01-23T00:30:08.040Z,18.51
2017-01-23T00:31:18.311Z,18.44
2017-01-23T00:32:27.391Z,18.51
2017-01-23T00:33:36.897Z,18.51
2017-01-23T00:34:45.639Z,18.48
2017-01-23T00:35:54.710Z,18.47
2017-01-23T00:37:04.975Z,18.51
2017-01-23T00:38:14.826Z,18.51
2017-01-23T00:39:24.307Z,18.5
2017-01-23T00:40:34.165Z,18.48
2017-01-23T00:41:42.858Z,18.45
2017-01-23T00:42:52.320Z,18.44
2017-01-23T00:44:01.035Z,18.45
2017-01-23T00:45:10.117Z,18.48
2017-01-23T00:46:18.883Z,18.47
2017-01-23T00:47:27.960Z,18.48
2017-01-23T00:48:36.639Z,18.48
2017-01-23T00:49:45.721Z,18.42
2017-01-23T00:50:54.842Z,18.48
2017-01-23T00:52:03.914Z,18.45
2017-01-23T00:53:13.393Z,18.44
2017-01-23T00:54:22.484Z,18.48
2017-01-23T00:55:31.174Z,18.47
2017-01-23T00:56:39.849Z,18.51
2017-01-23T00:57:49.322Z,18.45
2017-01-23T00:58:58.031Z,18.45
2017-01-23T01:00:06.720Z,18.48
2017-01-23T01:01:15.797Z,18.44
2017-01-23T01:02:24.871Z,18.48
2017-01-23T01:03:34.332Z,18.44
2017-01-23T01:04:43.419Z,18.52
2017-01-23T01:05:52.509Z,18.48
2017-01-23T01:07:02.008Z,18.48
2017-01-23T01:08:11.098Z,18.45
2017-01-23T01:09:20.176Z,18.5
2017-01-23T01:10:29.650Z,18.47
2017-01-23T01:11:38.338Z,18.5
2017-01-23T01:12:47.039Z,18.42
2017-01-23T01:13:56.120Z,18.45
2017-01-23T01:15:05.233Z,18.42
2017-01-23T01:16:14.718Z,18.48
2017-01-23T01:17:23.405Z,18.37
2017-01-23T01:18:32.092Z,18.42
2017-01-23T01:19:41.247Z,18.42
2017-01-23T01:20:50.713Z,18.44
2017-01-23T01:21:59.823Z,18.39
2017-01-23T01:23:08.900Z,18.45
2017-01-23T01:24:18.368Z,18.42
2017-01-23T01:25:27.835Z,18.44
2017-01-23T01:26:36.916Z,18.45
2017-01-23T01:27:46.773Z,18.45
2017-01-23T01:28:55.489Z,18.44
2017-01-23T01:30:04.562Z,18.44
2017-01-23T01:31:13.305Z,18.44
2017-01-23T01:32:23.173Z,18.41
2017-01-23T01:33:32.264Z,18.36
2017-01-23T01:34:40.949Z,18.44
2017-01-23T01:35:50.015Z,18.44
2017-01-23T01:36:59.101Z,18.36
2017-01-23T01:38:08.595Z,18.47
2017-01-23T01:39:17.274Z,18.39
2017-01-23T01:40:26.751Z,18.37
2017-01-23T01:41:35.837Z,18.36
2017-01-23T01:42:44.960Z,18.44
2017-01-23T01:43:54.415Z,18.35
2017-01-23T01:45:03.522Z,18.44
2017-01-23T01:46:12.210Z,18.39
2017-01-23T01:47:21.289Z,18.39
2017-01-23T01:48:29.989Z,18.44
2017-01-23T01:49:39.849Z,18.35
2017-01-23T01:50:48.556Z,18.39
2017-01-23T01:51:58.043Z,18.36
2017-01-23T01:53:07.528Z,18.39
2017-01-23T01:54:16.606Z,18.42
2017-01-23T01:55:26.075Z,18.37
2017-01-23T01:56:35.540Z,18.41
2017-01-23T01:57:44.611Z,18.36
2017-01-23T01:58:53.684Z,18.33
2017-01-23T02:00:02.379Z,18.27
2017-01-23T02:01:11.561Z,18.37
2017-01-23T02:02:21.422Z,18.36
2017-01-23T02:03:30.101Z,18.26
2017-01-23T02:04:39.198Z,18.41
2017-01-23T02:05:47.897Z,18.39
2017-01-23T02:06:57.366Z,18.29
2017-01-23T02:08:06.457Z,18.29
2017-01-23T02:09:15.145Z,18.27
2017-01-23T02:10:23.830Z,18.29
2017-01-23T02:11:33.303Z,18.33
2017-01-23T02:12:42.403Z,18.32
2017-01-23T02:13:51.935Z,18.26
2017-01-23T02:15:01.012Z,18.29
2017-01-23T02:16:10.105Z,18.29
2017-01-23T02:17:18.802Z,18.29
2017-01-23T02:18:27.484Z,18.27
2017-01-23T02:19:36.175Z,18.3
2017-01-23T02:20:45.263Z,18.3
2017-01-23T02:21:54.492Z,18.26
2017-01-23T02:23:03.967Z,18.27
2017-01-23T02:24:13.043Z,18.23
2017-01-23T02:25:22.136Z,18.23
2017-01-23T02:26:30.824Z,18.23
2017-01-23T02:27:39.954Z,18.29
2017-01-23T02:28:48.666Z,18.33
2017-01-23T02:29:57.347Z,18.27
2017-01-23T02:31:06.029Z,18.26
2017-01-23T02:32:15.115Z,18.27
2017-01-23T02:33:23.820Z,18.27
2017-01-23T02:34:32.549Z,18.3
2017-01-23T02:35:42.030Z,18.29
2017-01-23T02:36:51.121Z,18.26
2017-01-23T02:38:00.203Z,18.3
2017-01-23T02:39:09.323Z,18.25
2017-01-23T02:40:18.791Z,18.25
2017-01-23T02:41:28.264Z,18.25
2017-01-23T02:42:37.352Z,18.14
2017-01-23T02:43:46.427Z,18.2
2017-01-23T02:44:56.194Z,18.21
2017-01-23T02:46:05.276Z,18.21
2017-01-23T02:47:14.371Z,18.25
2017-01-23T02:48:23.449Z,18.18
2017-01-23T02:49:33.324Z,18.2
2017-01-23T02:50:42.808Z,18.23
2017-01-23T02:51:51.894Z,18.2
2017-01-23T02:53:01.369Z,18.18
2017-01-23T02:54:10.105Z,18.18
2017-01-23T02:55:18.837Z,18.23
2017-01-23T02:56:27.550Z,18.23
2017-01-23T02:57:36.238Z,18.17
2017-01-23T02:58:44.984Z,18.17
2017-01-23T02:59:54.057Z,18.2
2017-01-23T03:01:03.531Z,18.23
2017-01-23T03:02:12.626Z,18.23
2017-01-23T03:03:21.716Z,18.23
2017-01-23T03:04:30.803Z,18.17
2017-01-23T03:05:40.581Z,18.08
2017-01-23T03:06:49.692Z,18.18
2017-01-23T03:07:59.577Z,18.21
2017-01-23T03:09:09.088Z,18.18
2017-01-23T03:10:18.572Z,18.17
2017-01-23T03:11:27.255Z,18.21
2017-01-23T03:12:36.352Z,18.15
2017-01-23T03:13:45.054Z,18.21
2017-01-23T03:14:54.538Z,18.14
2017-01-23T03:16:03.226Z,18.2
2017-01-23T03:17:12.336Z,18.08
2017-01-23T03:18:21.399Z,18.18
2017-01-23T03:19:30.906Z,18.21
2017-01-23T03:20:40.004Z,18.21
2017-01-23T03:21:49.074Z,18.14
2017-01-23T03:22:58.155Z,18.21
2017-01-23T03:24:07.252Z,18.14
2017-01-23T03:25:16.515Z,18.14
2017-01-23T03:26:25.184Z,18.1
2017-01-23T03:27:33.874Z,18.14
2017-01-23T03:28:42.953Z,18.08
2017-01-23T03:29:52.827Z,18.1
2017-01-23T03:31:01.910Z,18.12
2017-01-23T03:32:10.606Z,18.14
2017-01-23T03:33:19.701Z,18.17
2017-01-23T03:34:29.170Z,18.11
2017-01-23T03:35:37.863Z,18.2
2017-01-23T03:36:46.951Z,18.18
2017-01-23T03:37:56.434Z,18.21
2017-01-23T03:39:05.513Z,18.08
2017-01-23T03:40:14.588Z,18.15
2017-01-23T03:41:23.667Z,18.2
2017-01-23T03:42:32.360Z,18.1
2017-01-23T03:43:41.831Z,18.2
2017-01-23T03:44:50.930Z,18.25
2017-01-23T03:46:00.002Z,18.08
2017-01-23T03:47:09.478Z,18.08
2017-01-23T03:48:18.176Z,18.08
2017-01-23T03:49:27.631Z,18.08
2017-01-23T03:50:36.319Z,18.05
2017-01-23T03:51:45.830Z,18.14
2017-01-23T03:52:54.938Z,18.14
2017-01-23T03:54:03.933Z,18.07
2017-01-23T03:55:13.014Z,18.07
2017-01-23T03:56:21.740Z,18.05
2017-01-23T03:57:30.808Z,18.17
2017-01-23T03:58:40.327Z,18.14
2017-01-23T03:59:49.809Z,18.18
2017-01-23T04:00:58.519Z,18.17
2017-01-23T04:02:07.620Z,18.18
2017-01-23T04:03:16.308Z,18.15
2017-01-23T04:04:25.418Z,18.05
2017-01-23T04:05:34.893Z,18.05
2017-01-23T04:06:43.978Z,18.17
2017-01-23T04:07:53.857Z,18.08
2017-01-23T04:09:03.727Z,18.03
2017-01-23T04:10:12.853Z,18.08
2017-01-23T04:11:22.344Z,18.07
2017-01-23T04:12:31.425Z,18.03
2017-01-23T04:13:40.513Z,18.1
2017-01-23T04:14:50.379Z,18
2017-01-23T04:16:00.237Z,18.02
2017-01-23T04:17:09.703Z,18.02
2017-01-23T04:18:19.161Z,17.97
2017-01-23T04:19:28.227Z,18.03
2017-01-23T04:20:37.319Z,18.05
2017-01-23T04:21:46.037Z,18.07
2017-01-23T04:22:55.529Z,18.02
2017-01-23T04:24:04.652Z,18.05
2017-01-23T04:25:13.723Z,18.02
2017-01-23T04:26:22.402Z,18.03
2017-01-23T04:27:32.949Z,18.03
2017-01-23T04:28:42.028Z,18.03
2017-01-23T04:29:51.099Z,18.05
2017-01-23T04:30:59.815Z,18.05
2017-01-23T04:32:09.309Z,18.05
2017-01-23T04:33:18.776Z,18.08
2017-01-23T04:34:28.267Z,18
2017-01-23T04:35:36.976Z,18.02
2017-01-23T04:36:46.055Z,18
2017-01-23T04:37:55.149Z,18.03
2017-01-23T04:39:05.023Z,18.02
2017-01-23T04:40:13.740Z,18.07
2017-01-23T04:41:22.834Z,18.02
2017-01-23T04:42:31.521Z,18.05
2017-01-23T04:43:40.609Z,18.1
2017-01-23T04:44:49.682Z,18.02
2017-01-23T04:45:58.767Z,18.05
2017-01-23T04:47:07.833Z,18.05
2017-01-23T04:48:16.921Z,18
2017-01-23T04:49:26.005Z,18.1
2017-01-23T04:50:35.073Z,18
2017-01-23T04:51:44.156Z,18.02
2017-01-23T04:52:53.652Z,18.08
2017-01-23T04:54:02.735Z,18.07
2017-01-23T04:55:11.432Z,18.1
2017-01-23T04:56:20.930Z,17.99
2017-01-23T04:57:30.388Z,18.1
2017-01-23T04:58:39.861Z,18.07
2017-01-23T04:59:48.539Z,18.03
2017-01-23T05:00:58.003Z,18.05
2017-01-23T05:02:07.469Z,18.02
2017-01-23T05:03:16.584Z,18.08
2017-01-23T05:04:25.296Z,17.95
2017-01-23T05:05:34.006Z,18.11
2017-01-23T05:06:43.113Z,18
2017-01-23T05:07:52.588Z,18.02
2017-01-23T05:09:02.076Z,17.93
2017-01-23T05:10:11.558Z,18.08
2017-01-23T05:11:20.243Z,18.03
2017-01-23T05:12:28.925Z,18.02
2017-01-23T05:13:38.399Z,18.07
2017-01-23T05:14:48.259Z,18.05
2017-01-23T05:15:57.333Z,18.03
2017-01-23T05:17:06.445Z,18.07
2017-01-23T05:18:15.588Z,18.05
2017-01-23T05:19:24.281Z,17.96
2017-01-23T05:20:32.962Z,17.93
2017-01-23T05:21:41.683Z,17.95
2017-01-23T05:22:50.759Z,18.03
2017-01-23T05:23:59.841Z,18.03
2017-01-23T05:25:08.948Z,17.97
2017-01-23T05:26:18.020Z,17.97
2017-01-23T05:27:27.512Z,17.96
2017-01-23T05:28:36.639Z,18
2017-01-23T05:29:46.117Z,18.12
2017-01-23T05:30:55.187Z,18
2017-01-23T05:32:04.484Z,18.02
2017-01-23T05:33:13.961Z,18.08
2017-01-23T05:34:23.445Z,18.03
2017-01-23T05:35:32.151Z,18.08
2017-01-23T05:36:41.636Z,18.05
2017-01-23T05:37:50.321Z,18.08
2017-01-23T05:38:59.445Z,18.08
2017-01-23T05:40:08.921Z,18.17
2017-01-23T05:41:18.378Z,18.23
2017-01-23T05:42:27.842Z,18.23
2017-01-23T05:43:36.928Z,18.3
2017-01-23T05:44:46.395Z,18.37
2017-01-23T05:45:55.637Z,18.47
2017-01-23T05:47:05.110Z,18.54
2017-01-23T05:48:14.227Z,18.65
2017-01-23T05:49:23.730Z,18.67
2017-01-23T05:50:32.830Z,18.66
2017-01-23T05:51:41.921Z,18.81
2017-01-23T05:52:51.007Z,18.9
2017-01-23T05:53:59.717Z,18.94
2017-01-23T05:55:08.798Z,18.98
2017-01-23T05:56:18.284Z,18.98
2017-01-23T05:57:27.405Z,19
2017-01-23T05:58:36.549Z,19.1
2017-01-23T05:59:46.032Z,19.21
2017-01-23T06:00:54.765Z,19.26
2017-01-23T06:02:04.299Z,19.26
2017-01-23T06:03:13.806Z,19.37
2017-01-23T06:04:22.493Z,19.36
2017-01-23T06:05:31.585Z,19.47
2017-01-23T06:06:40.295Z,19.47
2017-01-23T06:07:49.104Z,19.47
2017-01-23T06:08:58.594Z,19.55
2017-01-23T06:10:08.457Z,19.59
2017-01-23T06:11:17.973Z,19.66
2017-01-23T06:12:27.058Z,19.65
2017-01-23T06:13:36.169Z,19.61
2017-01-23T06:14:46.075Z,19.74
2017-01-23T06:15:54.853Z,19.86
2017-01-23T06:17:04.318Z,19.84
2017-01-23T06:18:14.217Z,19.92
2017-01-23T06:19:23.348Z,19.99
2017-01-23T06:20:32.496Z,20.08
2017-01-23T06:21:42.036Z,20.1
2017-01-23T06:22:51.155Z,20.11
2017-01-23T06:23:59.870Z,20.13
2017-01-23T06:25:09.393Z,20.21
2017-01-23T06:26:18.512Z,20.23
2017-01-23T06:27:27.319Z,20.23
2017-01-23T06:28:36.862Z,20.35
2017-01-23T06:29:45.562Z,20.38
2017-01-23T06:30:55.097Z,20.38
2017-01-23T06:32:03.807Z,20.43
2017-01-23T06:33:12.522Z,20.43
2017-01-23T06:34:21.660Z,20.47
2017-01-23T06:35:30.796Z,20.41
2017-01-23T06:36:39.546Z,20.55
2017-01-23T06:37:48.277Z,20.55
2017-01-23T06:38:57.545Z,20.7
2017-01-23T06:40:06.643Z,20.67
2017-01-23T06:41:15.746Z,20.66
2017-01-23T06:42:24.458Z,20.66
2017-01-23T06:43:33.156Z,20.64
2017-01-23T06:44:42.263Z,20.77
2017-01-23T06:45:51.369Z,20.72
2017-01-23T06:47:00.457Z,20.8
2017-01-23T06:48:09.969Z,20.82
2017-01-23T06:49:19.839Z,20.77
2017-01-23T06:50:29.703Z,20.74
2017-01-23T06:51:38.401Z,20.77
2017-01-23T06:52:47.587Z,20.77
2017-01-23T06:53:56.707Z,20.79
2017-01-23T06:55:05.398Z,20.79
2017-01-23T06:56:14.905Z,20.82
2017-01-23T06:57:23.608Z,20.79
2017-01-23T06:58:33.080Z,20.77
2017-01-23T06:59:42.148Z,20.74
2017-01-23T07:00:52.017Z,20.69
2017-01-23T07:02:01.121Z,20.72
2017-01-23T07:03:10.591Z,20.67
2017-01-23T07:04:20.143Z,20.62
2017-01-23T07:05:29.216Z,20.72
2017-01-23T07:06:37.927Z,20.77
2017-01-23T07:07:46.640Z,20.69
2017-01-23T07:08:55.335Z,20.66
2017-01-23T07:10:04.033Z,20.61
2017-01-23T07:11:12.754Z,20.61
2017-01-23T07:12:21.844Z,20.57
2017-01-23T07:13:30.548Z,20.39
2017-01-23T07:14:39.640Z,20.52
2017-01-23T07:15:48.344Z,20.55
2017-01-23T07:16:57.456Z,20.42
2017-01-23T07:18:06.554Z,20.51
2017-01-23T07:19:16.024Z,20.38
2017-01-23T07:20:24.737Z,20.43
2017-01-23T07:21:34.622Z,20.32
2017-01-23T07:22:43.778Z,20.35
2017-01-23T07:23:52.909Z,20.33
2017-01-23T07:25:02.017Z,20.31
2017-01-23T07:26:11.191Z,20.21
2017-01-23T07:27:20.303Z,20.17
2017-01-23T07:28:29.435Z,20.2
2017-01-23T07:29:38.554Z,20.24
2017-01-23T07:30:47.653Z,20.13
2017-01-23T07:31:56.748Z,20.02
2017-01-23T07:33:06.234Z,20.03
2017-01-23T07:34:15.722Z,20.02
2017-01-23T07:35:24.798Z,19.95
2017-01-23T07:36:33.522Z,19.98
2017-01-23T07:37:42.674Z,19.94
2017-01-23T07:38:52.166Z,19.91
2017-01-23T07:40:02.038Z,19.84
2017-01-23T07:41:10.764Z,19.83
2017-01-23T07:42:19.846Z,19.76
2017-01-23T07:43:28.934Z,19.8
2017-01-23T07:44:37.670Z,19.73
2017-01-23T07:45:46.382Z,19.69
2017-01-23T07:46:55.121Z,19.69
2017-01-23T07:48:04.989Z,19.65
2017-01-23T07:49:14.130Z,19.66
2017-01-23T07:50:22.817Z,19.59
2017-01-23T07:51:31.560Z,19.68
2017-01-23T07:52:41.031Z,19.61
2017-01-23T07:53:49.760Z,19.54
2017-01-23T07:54:58.873Z,19.59
2017-01-23T07:56:08.440Z,19.51
2017-01-23T07:57:17.138Z,19.55
2017-01-23T07:58:26.301Z,19.44
2017-01-23T07:59:35.446Z,19.55
2017-01-23T08:00:44.552Z,19.46
2017-01-23T08:01:54.111Z,19.5
2017-01-23T08:03:03.271Z,19.44
2017-01-23T08:04:12.004Z,19.4
2017-01-23T08:05:21.105Z,19.51
2017-01-23T08:06:30.609Z,19.39
2017-01-23T08:07:40.097Z,19.32
2017-01-23T08:08:48.847Z,19.36
2017-01-23T08:09:57.570Z,19.32
2017-01-23T08:11:06.686Z,19.4
2017-01-23T08:12:15.853Z,19.36
2017-01-23T08:13:25.719Z,19.28
2017-01-23T08:14:34.428Z,19.29
2017-01-23T08:15:43.545Z,19.25
2017-01-23T08:16:52.267Z,19.22
2017-01-23T08:18:01.354Z,19.28
2017-01-23T08:19:10.857Z,19.31
2017-01-23T08:20:19.547Z,19.29
2017-01-23T08:21:28.237Z,19.23
2017-01-23T08:22:37.322Z,19.23
2017-01-23T08:23:46.480Z,19.25
2017-01-23T08:24:55.175Z,19.21
2017-01-23T08:26:03.868Z,19.11
2017-01-23T08:27:12.957Z,19.14
2017-01-23T08:28:22.061Z,19.08
2017-01-23T08:29:31.184Z,19.07
2017-01-23T08:30:39.885Z,19.11
2017-01-23T08:31:48.968Z,19.04
2017-01-23T08:32:57.693Z,19.06
2017-01-23T08:34:06.789Z,19.04
2017-01-23T08:35:15.869Z,19.04
2017-01-23T08:36:25.382Z,18.99
2017-01-23T08:37:34.074Z,18.98
2017-01-23T08:38:42.802Z,18.99
2017-01-23T08:39:52.675Z,18.98
2017-01-23T08:41:01.384Z,18.98
2017-01-23T08:42:10.530Z,19
2017-01-23T08:43:20.027Z,18.95
2017-01-23T08:44:28.744Z,18.94
2017-01-23T08:45:37.845Z,18.94
2017-01-23T08:46:46.577Z,18.95
2017-01-23T08:47:56.067Z,19
2017-01-23T08:49:05.174Z,18.9
2017-01-23T08:50:14.646Z,18.95
2017-01-23T08:51:24.115Z,18.98
2017-01-23T08:52:33.191Z,18.91
2017-01-23T08:53:42.283Z,18.91
2017-01-23T08:54:50.978Z,18.94
2017-01-23T08:56:00.127Z,18.88
2017-01-23T08:57:08.867Z,18.9
2017-01-23T08:58:17.949Z,18.9
2017-01-23T08:59:28.613Z,18.87
2017-01-23T09:00:38.125Z,18.87
2017-01-23T09:01:46.861Z,18.84
2017-01-23T09:02:56.349Z,18.87
2017-01-23T09:04:05.449Z,18.98
2017-01-23T09:05:14.587Z,18.88
2017-01-23T09:06:23.702Z,18.87
2017-01-23T09:07:33.580Z,18.81
2017-01-23T09:08:42.665Z,18.84
2017-01-23T09:09:51.342Z,18.81
2017-01-23T09:11:00.209Z,18.87
2017-01-23T09:12:08.931Z,18.85
2017-01-23T09:13:18.403Z,18.87
2017-01-23T09:14:27.114Z,18.84
2017-01-23T09:15:35.849Z,18.81
2017-01-23T09:16:45.335Z,18.87
2017-01-23T09:17:54.034Z,18.87
2017-01-23T09:19:03.136Z,18.88
2017-01-23T09:20:11.858Z,18.9
2017-01-23T09:21:20.942Z,18.82
2017-01-23T09:22:29.639Z,18.82
2017-01-23T09:23:38.730Z,18.88
2017-01-23T09:24:47.437Z,18.85
2017-01-23T09:25:56.567Z,18.87
2017-01-23T09:27:05.721Z,18.81
2017-01-23T09:28:14.813Z,18.87
2017-01-23T09:29:23.536Z,18.87
2017-01-23T09:30:33.435Z,18.8
2017-01-23T09:31:42.150Z,18.87
2017-01-23T09:32:51.622Z,18.85
2017-01-23T09:34:00.709Z,18.9
2017-01-23T09:35:10.209Z,18.85
2017-01-23T09:36:19.292Z,18.88
2017-01-23T09:37:28.393Z,18.82
2017-01-23T09:38:37.485Z,18.8
2017-01-23T09:39:46.588Z,18.87
2017-01-23T09:40:56.099Z,18.9
2017-01-23T09:42:05.550Z,18.88
2017-01-23T09:43:15.023Z,18.87
2017-01-23T09:44:23.720Z,18.87
2017-01-23T09:45:32.429Z,18.87
2017-01-23T09:46:41.604Z,18.81
2017-01-23T09:47:50.355Z,18.85
2017-01-23T09:48:59.076Z,18.82
2017-01-23T09:50:08.573Z,18.82
2017-01-23T09:51:18.121Z,18.81
2017-01-23T09:52:27.206Z,18.75
2017-01-23T09:53:36.671Z,18.85
2017-01-23T09:54:45.375Z,18.82
2017-01-23T09:55:54.084Z,18.87
2017-01-23T09:57:02.797Z,18.84
2017-01-23T09:58:11.902Z,18.85
2017-01-23T09:59:20.977Z,18.81
2017-01-23T10:00:30.446Z,18.84
2017-01-23T10:01:39.153Z,18.85
2017-01-23T10:02:48.275Z,18.76
2017-01-23T10:03:57.395Z,18.8
2017-01-23T10:05:06.902Z,18.85
2017-01-23T10:06:15.600Z,18.84
2017-01-23T10:07:24.698Z,18.78
2017-01-23T10:08:34.571Z,18.78
2017-01-23T10:09:44.083Z,18.78
2017-01-23T10:10:52.828Z,18.78
2017-01-23T10:12:01.923Z,18.81
2017-01-23T10:13:10.608Z,18.84
2017-01-23T10:14:19.328Z,18.78
2017-01-23T10:15:28.813Z,18.81
2017-01-23T10:16:38.690Z,18.88
2017-01-23T10:17:47.784Z,18.8
2017-01-23T10:18:56.483Z,18.76
2017-01-23T10:20:05.999Z,18.76
2017-01-23T10:21:15.087Z,18.75
2017-01-23T10:22:23.776Z,18.8
2017-01-23T10:23:32.892Z,18.73
2017-01-23T10:24:41.980Z,18.76
2017-01-23T10:25:50.698Z,18.75
2017-01-23T10:27:00.191Z,18.78
2017-01-23T10:28:09.680Z,18.8
2017-01-23T10:29:19.151Z,18.81
2017-01-23T10:30:28.283Z,18.81
2017-01-23T10:31:37.388Z,18.78
2017-01-23T10:32:46.115Z,18.75
2017-01-23T10:33:55.621Z,18.78
2017-01-23T10:35:04.331Z,18.66
2017-01-23T10:36:13.819Z,18.72
2017-01-23T10:37:22.908Z,18.76
2017-01-23T10:38:32.414Z,18.7
2017-01-23T10:39:41.925Z,18.69
2017-01-23T10:40:50.636Z,18.7
2017-01-23T10:41:59.348Z,18.69
2017-01-23T10:43:08.850Z,18.73
2017-01-23T10:44:19.116Z,18.7
2017-01-23T10:45:28.206Z,18.78
2017-01-23T10:46:36.909Z,18.67
2017-01-23T10:47:46.431Z,18.8
2017-01-23T10:48:55.124Z,18.78
2017-01-23T10:50:03.865Z,18.67
2017-01-23T10:51:13.008Z,18.76
2017-01-23T10:52:22.496Z,18.81
2017-01-23T10:53:32.023Z,18.7
2017-01-23T10:54:41.109Z,18.8
2017-01-23T10:55:50.211Z,18.78
2017-01-23T10:56:58.929Z,18.8
2017-01-23T10:58:07.650Z,18.81
2017-01-23T10:59:16.364Z,18.73
2017-01-23T11:00:25.058Z,18.66
2017-01-23T11:01:34.532Z,18.7
2017-01-23T11:02:44.000Z,18.72
2017-01-23T11:03:52.773Z,18.66
2017-01-23T11:05:01.495Z,18.75
2017-01-23T11:06:10.200Z,18.72
2017-01-23T11:07:19.284Z,18.72
2017-01-23T11:08:28.387Z,18.75
2017-01-23T11:09:37.493Z,18.75
2017-01-23T11:10:46.653Z,18.72
2017-01-23T11:11:55.771Z,18.76
2017-01-23T11:13:05.259Z,18.72
2017-01-23T11:14:15.160Z,18.76
2017-01-23T11:15:24.644Z,18.78
2017-01-23T11:16:33.788Z,18.7
2017-01-23T11:17:42.915Z,18.78
2017-01-23T11:18:52.418Z,18.75
2017-01-23T11:20:01.515Z,18.76
2017-01-23T11:21:10.219Z,18.7
2017-01-23T11:22:19.695Z,18.75
2017-01-23T11:23:28.788Z,18.75
2017-01-23T11:24:37.868Z,18.73
2017-01-23T11:25:46.953Z,18.7
2017-01-23T11:26:55.655Z,18.7
2017-01-23T11:28:04.767Z,18.67
2017-01-23T11:29:13.474Z,18.7
2017-01-23T11:30:22.557Z,18.7
2017-01-23T11:31:31.261Z,18.7
2017-01-23T11:32:40.388Z,18.66
2017-01-23T11:33:49.881Z,18.8
2017-01-23T11:34:58.946Z,18.76
2017-01-23T11:36:07.654Z,18.69
2017-01-23T11:37:17.166Z,18.7
2017-01-23T11:38:25.859Z,18.82
2017-01-23T11:39:34.585Z,18.81
2017-01-23T11:40:43.677Z,18.67
2017-01-23T11:41:52.788Z,18.72
2017-01-23T11:43:01.869Z,18.76
2017-01-23T11:44:10.652Z,18.7
2017-01-23T11:45:19.738Z,18.75
2017-01-23T11:46:28.491Z,18.7
2017-01-23T11:47:37.579Z,18.7
2017-01-23T11:48:46.717Z,18.78
2017-01-23T11:49:56.232Z,18.72
2017-01-23T11:51:05.356Z,18.7
2017-01-23T11:52:14.841Z,18.72
2017-01-23T11:53:24.303Z,18.7
2017-01-23T11:54:33.399Z,18.7
2017-01-23T11:55:42.089Z,18.67
2017-01-23T11:56:51.188Z,18.72
2017-01-23T11:58:00.271Z,18.7
2017-01-23T11:59:09.810Z,18.7
2017-01-23T12:00:18.904Z,18.75
2017-01-23T12:01:28.008Z,18.67
2017-01-23T12:02:36.717Z,18.7
2017-01-23T12:03:45.844Z,18.67
2017-01-23T12:04:54.945Z,18.69
2017-01-23T12:06:03.644Z,18.72
2017-01-23T12:07:13.142Z,18.69
2017-01-23T12:08:22.283Z,18.69
2017-01-23T12:09:31.788Z,18.69
2017-01-23T12:10:40.882Z,18.7
2017-01-23T12:11:49.952Z,18.72
2017-01-23T12:12:59.430Z,18.72
2017-01-23T12:14:08.957Z,18.7
2017-01-23T12:15:18.036Z,18.73
2017-01-23T12:16:27.924Z,18.75
2017-01-23T12:17:37.063Z,18.69
2017-01-23T12:18:45.790Z,18.69
2017-01-23T12:19:54.488Z,18.7
2017-01-23T12:21:03.222Z,18.76
2017-01-23T12:22:12.306Z,18.7
2017-01-23T12:23:21.396Z,18.72
2017-01-23T12:24:30.520Z,18.69
2017-01-23T12:25:39.246Z,18.73
2017-01-23T12:26:48.339Z,18.67
2017-01-23T12:27:57.439Z,18.76
2017-01-23T12:29:06.550Z,18.76
2017-01-23T12:30:15.263Z,18.75
2017-01-23T12:31:25.163Z,18.75
2017-01-23T12:32:34.678Z,18.69
2017-01-23T12:33:44.171Z,18.75
2017-01-23T12:34:52.919Z,18.69
2017-01-23T12:36:01.622Z,18.72
2017-01-23T12:37:10.741Z,18.67
2017-01-23T12:38:20.596Z,18.72
2017-01-23T12:39:30.068Z,18.7
2017-01-23T12:40:38.766Z,18.75
2017-01-23T12:41:47.844Z,18.73
2017-01-23T12:42:58.100Z,18.65
2017-01-23T12:44:07.194Z,18.63
2017-01-23T12:45:16.299Z,18.62
2017-01-23T12:46:24.998Z,18.62
2017-01-23T12:47:34.070Z,18.65
2017-01-23T12:48:43.543Z,18.62
2017-01-23T12:49:52.678Z,18.6
2017-01-23T12:51:02.570Z,18.65
2017-01-23T12:52:12.047Z,18.66
2017-01-23T12:53:21.119Z,18.65
2017-01-23T12:54:29.837Z,18.65
2017-01-23T12:55:39.707Z,18.62
2017-01-23T12:56:49.570Z,18.52
2017-01-23T12:57:59.073Z,18.65
2017-01-23T12:59:08.155Z,18.55
2017-01-23T13:00:17.232Z,18.62
2017-01-23T13:01:26.308Z,18.55
2017-01-23T13:02:35.793Z,18.63
2017-01-23T13:03:44.515Z,18.65
2017-01-23T13:04:53.625Z,18.52
2017-01-23T13:06:03.666Z,18.58
2017-01-23T13:07:13.528Z,18.54
2017-01-23T13:08:22.249Z,18.55
2017-01-23T13:09:32.313Z,18.58
2017-01-23T13:10:41.820Z,18.57
2017-01-23T13:11:50.904Z,18.6
2017-01-23T13:12:59.979Z,18.58
2017-01-23T13:14:08.704Z,18.55
2017-01-23T13:15:18.582Z,18.57
2017-01-23T13:16:27.677Z,18.45
2017-01-23T13:17:36.406Z,18.48
2017-01-23T13:18:45.954Z,18.51
2017-01-23T13:19:55.025Z,18.57
2017-01-23T13:21:04.500Z,18.5
2017-01-23T13:22:13.609Z,18.54
2017-01-23T13:23:22.757Z,18.47
2017-01-23T13:24:31.878Z,18.45
2017-01-23T13:25:41.383Z,18.6
2017-01-23T13:26:50.477Z,18.51
2017-01-23T13:27:59.176Z,18.51
2017-01-23T13:29:07.874Z,18.48
2017-01-23T13:30:16.582Z,18.55
2017-01-23T13:31:26.069Z,18.5
2017-01-23T13:32:34.856Z,18.47
2017-01-23T13:33:44.358Z,18.47
2017-01-23T13:34:53.421Z,18.47
2017-01-23T13:36:02.115Z,18.44
2017-01-23T13:37:10.843Z,18.51
2017-01-23T13:38:19.546Z,18.54
2017-01-23T13:39:28.669Z,18.5
2017-01-23T13:40:38.961Z,18.48
2017-01-23T13:41:48.848Z,18.51
2017-01-23T13:42:57.559Z,18.52
2017-01-23T13:44:06.272Z,18.54
2017-01-23T13:45:16.140Z,18.54
2017-01-23T13:46:25.228Z,18.48
2017-01-23T13:47:34.311Z,18.5
2017-01-23T13:48:43.435Z,18.47
2017-01-23T13:49:53.316Z,18.54
2017-01-23T13:51:02.016Z,18.54
2017-01-23T13:52:10.736Z,18.52
2017-01-23T13:53:19.832Z,18.51
2017-01-23T13:54:28.950Z,18.5
2017-01-23T13:55:38.419Z,18.45
2017-01-23T13:56:48.300Z,18.5
2017-01-23T13:57:57.383Z,18.52
2017-01-23T13:59:06.507Z,18.55
2017-01-23T14:00:15.241Z,18.51
2017-01-23T14:01:24.338Z,18.5
2017-01-23T14:02:33.832Z,18.5
2017-01-23T14:03:42.536Z,18.51
2017-01-23T14:04:52.047Z,18.47
2017-01-23T14:06:01.147Z,18.45
2017-01-23T14:07:10.250Z,18.48
2017-01-23T14:08:18.996Z,18.47
2017-01-23T14:09:28.082Z,18.51
2017-01-23T14:10:36.803Z,18.47
2017-01-23T14:11:46.333Z,18.45
2017-01-23T14:12:55.549Z,18.44
2017-01-23T14:14:05.415Z,18.42
2017-01-23T14:15:14.536Z,18.44
2017-01-23T14:16:23.651Z,18.48
2017-01-23T14:17:33.565Z,18.51
2017-01-23T14:18:42.305Z,18.44
2017-01-23T14:19:51.780Z,18.45
2017-01-23T14:21:00.881Z,18.39
2017-01-23T14:22:09.979Z,18.45
2017-01-23T14:23:18.696Z,18.44
2017-01-23T14:24:27.839Z,18.39
2017-01-23T14:25:37.353Z,18.44
2017-01-23T14:26:46.848Z,18.41
2017-01-23T14:27:55.932Z,18.41
2017-01-23T14:29:05.023Z,18.39
2017-01-23T14:30:14.121Z,18.47
2017-01-23T14:31:23.232Z,18.36
2017-01-23T14:32:31.987Z,18.39
2017-01-23T14:33:40.719Z,18.42
2017-01-23T14:34:50.192Z,18.35
2017-01-23T14:36:00.057Z,18.39
2017-01-23T14:37:08.782Z,18.39
2017-01-23T14:38:18.269Z,18.37
2017-01-23T14:39:26.992Z,18.35
2017-01-23T14:40:36.471Z,18.35
2017-01-23T14:41:45.185Z,18.37
2017-01-23T14:42:54.285Z,18.3
2017-01-23T14:44:03.401Z,18.35
2017-01-23T14:45:12.910Z,18.35
2017-01-23T14:46:21.994Z,18.32
2017-01-23T14:47:30.700Z,18.37
2017-01-23T14:48:39.794Z,18.33
2017-01-23T14:49:48.483Z,18.36
2017-01-23T14:50:57.587Z,18.29
2017-01-23T14:52:07.121Z,18.33
2017-01-23T14:53:16.605Z,18.36
2017-01-23T14:54:25.730Z,18.32